aviador You're here:

KDYB Decoded Metar

in
Report Time2017-08-22 22:15:00
UTC Time2017-08-22 22:30:55
Flight Rules vfr VFR
Wind140° at 05 kt
W.Decomp.*RWY 06: 0.9 kt HW 4.9 kt RCW
W.Rank140° ranks 22
Current wind is above 140° avg. (4.5)
Visibility9999 m
Phenomena:N/A
Clouds:N/A
Expected CloudBase > 1,600 ft AGL from Temp-Dew spread
CeilingNone
Temp29°C
Dew Point25°C (79% RH)
Heat Index34.5°C
QNH1016 hPa
Raw Report
METAR KDYB 222215Z AUTO 14005KT 10SM CLR 29/25 A3001 RMK AO1=

Extra information for KDYB:More info

Social comments